createdAt,value
2018-10-19T00:03:07.133Z,102338.37
2018-10-19T00:08:09.292Z,102335.17
2018-10-19T00:13:11.395Z,102331.58
2018-10-19T00:18:13.523Z,102333.42
2018-10-19T00:23:15.637Z,102335.30
2018-10-19T00:28:17.748Z,102329.50
2018-10-19T00:33:19.893Z,102324.70
2018-10-19T00:38:22.012Z,102324.70
2018-10-19T00:43:24.127Z,102329.22
2018-10-19T00:48:26.222Z,102323.08
2018-10-19T00:53:28.306Z,102324.84
2018-10-19T00:58:30.403Z,102323.58
2018-10-19T01:03:32.525Z,102318.22
2018-10-19T01:08:34.702Z,102322.55
2018-10-19T01:13:36.815Z,102322.22
2018-10-19T01:18:39.029Z,102309.03
2018-10-19T01:23:41.116Z,102318.30
2018-10-19T01:28:43.220Z,102307.11
2018-10-19T01:33:52.236Z,102313.81
2018-10-19T01:38:54.401Z,102314.56
2018-10-19T01:43:56.457Z,102316.97
2018-10-19T01:48:58.551Z,102320.92
2018-10-19T01:54:01.006Z,102318.86
2018-10-19T01:59:03.169Z,102316.22
2018-10-19T02:04:05.235Z,102316.83
2018-10-19T02:09:07.918Z,102330.05
2018-10-19T02:14:09.970Z,102326.56
2018-10-19T02:19:12.068Z,102327.58
2018-10-19T02:24:14.161Z,102327.92
2018-10-19T02:29:16.258Z,102319.02
2018-10-19T02:34:18.437Z,102320.53
2018-10-19T02:39:20.560Z,102321.79
2018-10-19T02:44:22.687Z,102327.06
2018-10-19T02:49:24.790Z,102319.74
2018-10-19T02:54:26.888Z,102318.69
2018-10-19T02:59:28.999Z,102316.67
2018-10-19T03:04:31.121Z,102328.31
2018-10-19T03:09:33.236Z,102330.27
2018-10-19T03:14:35.371Z,102323.47
2018-10-19T03:19:37.494Z,102327.72
2018-10-19T03:24:39.595Z,102321.16
2018-10-19T03:29:41.726Z,102319.05
2018-10-19T03:34:43.855Z,102325.01
2018-10-19T03:39:45.972Z,102318.27
2018-10-19T03:44:48.116Z,102319.28
2018-10-19T03:49:50.199Z,102313.95
2018-10-19T03:54:52.406Z,102318.03
2018-10-19T03:59:54.532Z,102323.38
2018-10-19T04:04:56.696Z,102324.14
2018-10-19T04:09:58.741Z,102334.34
2018-10-19T04:15:00.890Z,102326.02
2018-10-19T04:20:03.241Z,102326.66
2018-10-19T04:25:05.419Z,102333.12
2018-10-19T04:30:07.810Z,102328.40
2018-10-19T04:35:10.031Z,102332.34
2018-10-19T04:40:16.569Z,102328.87
2018-10-19T04:45:19.319Z,102331.02
2018-10-19T04:50:21.436Z,102330.43
2018-10-19T04:55:23.539Z,102330.75
2018-10-19T05:00:25.629Z,102327.17
2018-10-19T05:05:27.863Z,102322.77
2018-10-19T05:10:29.887Z,102323.77
2018-10-19T05:15:32.028Z,102333.53
2018-10-19T05:20:34.108Z,102336.61
2018-10-19T05:25:36.197Z,102337.73
2018-10-19T05:30:38.265Z,102351.56
2018-10-19T05:35:40.408Z,102348.70
2018-10-19T05:40:42.519Z,102354.61
2018-10-19T05:45:44.636Z,102350.76
2018-10-19T05:50:46.758Z,102358.03
2018-10-19T05:55:48.898Z,102352.36
2018-10-19T06:00:51.064Z,102355.73
2018-10-19T06:05:53.208Z,102363.43
2018-10-19T06:10:55.352Z,102359.63
2018-10-19T06:15:57.447Z,102369.54
2018-10-19T06:20:59.613Z,102367.35
2018-10-19T06:26:01.834Z,102381.96
2018-10-19T06:31:04.135Z,102384.58
2018-10-19T06:36:06.286Z,102389.40
2018-10-19T06:41:08.454Z,102389.04
2018-10-19T06:46:10.510Z,102384.89
2018-10-19T06:51:12.609Z,102392.53
2018-10-19T06:56:14.760Z,102386.52
2018-10-19T07:01:16.849Z,102384.95
2018-10-19T07:06:19.033Z,102398.98
2018-10-19T07:11:21.306Z,102400.37
2018-10-19T07:16:23.469Z,102395.16
2018-10-19T07:21:25.613Z,102387.23
2018-10-19T07:26:27.738Z,102388.83
2018-10-19T07:31:29.846Z,102393.28
2018-10-19T07:36:32.060Z,102395.48
2018-10-19T07:41:34.118Z,102400.79
2018-10-19T07:46:36.270Z,102404.28
2018-10-19T07:51:38.412Z,102404.31
2018-10-19T07:56:40.482Z,102400.83
2018-10-19T08:01:42.619Z,102407.18
2018-10-19T08:06:44.751Z,102404.21
2018-10-19T08:11:46.869Z,102405.00
2018-10-19T08:16:49.004Z,102400.00
2018-10-19T08:21:51.334Z,102397.24
2018-10-19T08:26:53.434Z,102402.30
2018-10-19T08:31:55.618Z,102400.89
2018-10-19T08:36:57.755Z,102405.67
2018-10-19T08:41:59.891Z,102405.55
2018-10-19T08:47:02.110Z,102410.05
2018-10-19T08:52:04.325Z,102409.01
2018-10-19T08:57:06.549Z,102414.00
2018-10-19T09:02:08.594Z,102410.14
2018-10-19T09:07:10.695Z,102415.17
2018-10-19T09:12:12.824Z,102416.67
2018-10-19T09:17:15.037Z,102405.64
2018-10-19T09:22:17.460Z,102401.08
2018-10-19T09:27:19.857Z,102406.35
2018-10-19T09:32:21.971Z,102405.44
2018-10-19T09:37:24.120Z,102403.73
2018-10-19T09:42:26.270Z,102405.36
2018-10-19T09:47:28.520Z,102399.47
2018-10-19T09:52:30.564Z,102396.92
2018-10-19T09:57:32.695Z,102394.77
2018-10-19T10:02:34.861Z,102392.55
2018-10-19T10:07:36.960Z,102395.81
2018-10-19T10:12:39.054Z,102390.67
2018-10-19T10:17:41.178Z,102390.99
2018-10-19T10:22:43.303Z,102391.91
2018-10-19T10:27:45.478Z,102384.98
2018-10-19T10:32:47.630Z,102382.76
2018-10-19T10:37:49.978Z,102383.86
2018-10-19T10:42:52.067Z,102381.59
2018-10-19T10:47:54.196Z,102386.29
2018-10-19T10:52:56.308Z,102383.98
2018-10-19T10:57:58.465Z,102379.40
2018-10-19T11:03:00.575Z,102375.00
2018-10-19T11:08:02.703Z,102371.81
2018-10-19T11:13:04.946Z,102367.51
2018-10-19T11:18:07.277Z,102372.64
2018-10-19T11:23:09.419Z,102364.17
2018-10-19T11:28:11.848Z,102366.94
2018-10-19T11:33:13.983Z,102365.03
2018-10-19T11:38:16.149Z,102357.48
2018-10-19T11:43:18.334Z,102352.14
2018-10-19T11:48:20.404Z,102345.91
2018-10-19T11:53:22.536Z,102348.68
2018-10-19T11:58:24.690Z,102346.53
2018-10-19T12:03:26.837Z,102348.15
2018-10-19T12:08:28.912Z,102341.59
2018-10-19T12:13:31.108Z,102347.75
2018-10-19T12:18:33.237Z,102334.95
2018-10-19T12:23:35.353Z,102338.84
2018-10-19T12:28:37.513Z,102345.23
2018-10-19T12:33:39.656Z,102340.19
2018-10-19T12:38:41.836Z,102328.31
2018-10-19T12:43:43.951Z,102317.59
2018-10-19T12:48:46.082Z,102320.53
2018-10-19T12:53:48.357Z,102312.30
2018-10-19T12:58:51.471Z,102316.44
2018-10-19T13:03:53.655Z,102310.26
2018-10-19T13:08:55.897Z,102302.41
2018-10-19T13:13:57.960Z,102294.41
2018-10-19T13:19:00.098Z,102273.39
2018-10-19T13:24:02.246Z,102273.13
2018-10-19T13:29:04.833Z,102274.83
2018-10-19T13:34:06.986Z,102278.36
2018-10-19T13:39:10.778Z,102279.80
2018-10-19T13:44:12.826Z,102269.36
2018-10-19T13:49:14.966Z,102266.73
2018-10-19T13:54:17.114Z,102268.39
2018-10-19T13:59:19.345Z,102269.52
2018-10-19T14:04:21.469Z,102268.39
2018-10-19T14:09:23.629Z,102256.90
2018-10-19T14:14:25.755Z,102254.12
2018-10-19T14:19:27.856Z,102252.81
2018-10-19T14:24:29.978Z,102239.82
2018-10-19T14:29:32.104Z,102239.03
2018-10-19T14:34:34.245Z,102238.98
2018-10-19T14:39:36.459Z,102241.73
2018-10-19T14:44:38.733Z,102240.11
2018-10-19T14:49:40.898Z,102248.20
2018-10-19T14:54:43.169Z,102251.41
2018-10-19T14:59:45.210Z,102246.06
2018-10-19T15:04:47.423Z,102249.15
2018-10-19T15:09:49.738Z,102253.45
2018-10-19T15:14:51.680Z,102247.77
2018-10-19T15:19:53.801Z,102251.75
2018-10-19T15:24:56.099Z,102250.27
2018-10-19T15:29:58.339Z,102252.33
2018-10-19T15:35:00.451Z,102244.87
2018-10-19T15:40:02.723Z,102246.77
2018-10-19T15:45:06.648Z,102247.48
2018-10-19T15:50:08.980Z,102251.90
2018-10-19T15:55:11.156Z,102247.66
2018-10-19T16:00:13.422Z,102248.66
2018-10-19T16:05:15.514Z,102252.47
2018-10-19T16:10:17.692Z,102249.55
2018-10-19T16:15:19.824Z,102254.44
2018-10-19T16:20:21.947Z,102252.14
2018-10-19T16:25:24.081Z,102254.58
2018-10-19T16:30:26.227Z,102256.86
2018-10-19T16:35:28.377Z,102262.69
2018-10-19T16:40:30.553Z,102267.56
2018-10-19T16:45:32.787Z,102269.73
2018-10-19T16:50:35.054Z,102272.04
2018-10-19T16:55:37.163Z,102277.91
2018-10-19T17:00:39.347Z,102281.20
2018-10-19T17:05:41.520Z,102293.48
2018-10-19T17:10:43.672Z,102306.81
2018-10-19T17:15:45.827Z,102306.78
2018-10-19T17:20:48.086Z,102308.70
2018-10-19T17:25:50.272Z,102301.77
2018-10-19T17:30:52.539Z,102298.30
2018-10-19T17:35:54.685Z,102295.42
2018-10-19T17:40:56.907Z,102293.08
2018-10-19T17:45:59.115Z,102297.67
2018-10-19T17:51:01.306Z,102308.89
2018-10-19T17:56:03.646Z,102318.13
2018-10-19T18:01:05.934Z,102318.95
2018-10-19T18:06:08.203Z,102321.27
2018-10-19T18:11:10.646Z,102322.12
2018-10-19T18:16:13.697Z,102326.90
2018-10-19T18:21:16.044Z,102324.80
2018-10-19T18:26:18.151Z,102330.76
2018-10-19T18:31:20.410Z,102345.83
2018-10-19T18:36:22.616Z,102345.18
2018-10-19T18:41:24.874Z,102361.16
2018-10-19T18:46:27.335Z,102357.38
2018-10-19T18:51:30.098Z,102362.81
2018-10-19T18:56:32.424Z,102357.45
2018-10-19T19:01:34.818Z,102358.48
2018-10-19T19:06:38.909Z,102357.14
2018-10-19T19:11:41.722Z,102355.82
2018-10-19T19:16:44.675Z,102354.05
2018-10-19T19:21:47.104Z,102352.91
2018-10-19T19:26:49.510Z,102354.17
2018-10-19T19:31:52.338Z,102348.98
2018-10-19T19:36:55.084Z,102351.34
2018-10-19T19:42:03.722Z,102347.63
2018-10-19T19:47:06.613Z,102347.42
2018-10-19T19:52:10.957Z,102352.98
2018-10-19T19:57:14.889Z,102346.88
2018-10-19T20:02:17.570Z,102351.52
2018-10-19T20:07:20.233Z,102351.93
2018-10-19T20:12:22.658Z,102349.56
2018-10-19T20:17:25.343Z,102356.50
2018-10-19T20:22:27.815Z,102366.02
2018-10-19T20:27:30.668Z,102363.33
2018-10-19T20:32:32.967Z,102365.73
2018-10-19T20:37:35.163Z,102374.11
2018-10-19T20:42:37.390Z,102370.13
2018-10-19T20:47:39.630Z,102371.47
2018-10-19T20:52:41.802Z,102382.17
2018-10-19T20:57:43.945Z,102379.23
2018-10-19T21:02:46.172Z,102361.99
2018-10-19T21:07:48.351Z,102378.84
2018-10-19T21:12:50.540Z,102374.69
2018-10-19T21:17:52.711Z,102366.52
2018-10-19T21:22:54.909Z,102363.61
2018-10-19T21:27:57.058Z,102362.03
2018-10-19T21:32:59.249Z,102356.73
2018-10-19T21:38:01.477Z,102355.17
2018-10-19T21:43:03.791Z,102360.70
2018-10-19T21:48:05.919Z,102346.52
2018-10-19T21:53:08.066Z,102349.03
2018-10-19T21:58:10.223Z,102352.33
2018-10-19T22:03:12.349Z,102354.55
2018-10-19T22:08:14.520Z,102356.70
2018-10-19T22:13:16.742Z,102345.72
2018-10-19T22:18:18.836Z,102370.52
2018-10-19T22:23:21.021Z,102364.11
2018-10-19T22:28:23.104Z,102376.13
2018-10-19T22:33:25.231Z,102373.33
2018-10-19T22:38:27.356Z,102371.28
2018-10-19T22:43:29.843Z,102373.15
2018-10-19T22:48:31.964Z,102377.00
2018-10-19T22:53:34.143Z,102369.55
2018-10-19T22:58:36.288Z,102374.69
2018-10-19T23:03:38.416Z,102368.57
2018-10-19T23:08:40.581Z,102373.91
2018-10-19T23:13:42.841Z,102375.09
2018-10-19T23:18:44.991Z,102378.47
2018-10-19T23:23:47.157Z,102375.77
2018-10-19T23:28:49.351Z,102368.25
2018-10-19T23:33:51.453Z,102369.05
2018-10-19T23:38:53.619Z,102363.80
2018-10-19T23:43:55.908Z,102368.56
2018-10-19T23:48:57.977Z,102368.25
2018-10-19T23:54:00.087Z,102330.20
2018-10-19T23:59:02.319Z,102372.85
